Time;durP1;ratioP1;P1;durP2;ratioP2;P2;SDS_P1;SDS_P2;PMS_P1;PMS_P2;Temp;Humidity;BMP_temperature;BMP_pressure;BME280_temperature;BME280_humidity;BME280_pressure;Samples;Min_cycle;Max_cycle;Signal;HPM_P1;HPM_P2
2022/06/02 00:00:01;;;;;;;1.00;1.00;;;13.00;55.40;;;;;;934418;150;27372;-75
2022/06/02 00:02:27;;;;;;;1.53;0.90;;;13.00;55.70;;;;;;929297;152;27258;-76
2022/06/02 00:05:00;;;;;;;1.43;1.20;;;12.90;55.90;;;;;;933273;152;27647;-75
2022/06/02 00:07:30;;;;;;;1.37;1.27;;;12.90;56.20;;;;;;919934;153;28038;-75
2022/06/02 00:10:07;;;;;;;1.00;1.00;;;12.80;56.40;;;;;;938500;152;27372;-75
2022/06/02 00:12:33;;;;;;;1.27;1.27;;;12.70;56.60;;;;;;923445;152;27371;-75
2022/06/02 00:15:19;;;;;;;1.70;1.50;;;12.70;56.70;;;;;;923758;154;27352;-75
2022/06/02 00:18:10;;;;;;;1.53;1.43;;;12.60;56.80;;;;;;931199;152;27353;-75
2022/06/02 00:20:42;;;;;;;2.20;1.50;;;12.60;56.80;;;;;;936010;153;27354;-76
2022/06/02 00:23:21;;;;;;;1.50;1.40;;;12.60;56.80;;;;;;934793;151;27524;-75
2022/06/02 00:25:54;;;;;;;1.37;1.30;;;12.50;57.00;;;;;;926377;155;27346;-75
2022/06/02 00:28:35;;;;;;;2.57;1.60;;;12.50;57.00;;;;;;934472;152;27393;-75
2022/06/02 00:31:20;;;;;;;1.47;1.30;;;12.40;57.20;;;;;;946447;151;27335;-75
2022/06/02 00:33:55;;;;;;;1.60;1.50;;;12.40;57.40;;;;;;940683;151;27935;-75
2022/06/02 00:36:42;;;;;;;1.53;1.43;;;12.30;57.50;;;;;;947704;151;27344;-75
2022/06/02 00:39:09;;;;;;;1.67;1.20;;;12.20;57.60;;;;;;938637;151;27327;-75
2022/06/02 00:41:54;;;;;;;1.30;1.20;;;12.10;57.50;;;;;;940802;149;27294;-75
2022/06/02 00:44:39;;;;;;;2.10;1.43;;;12.10;57.90;;;;;;933835;152;27868;-75
2022/06/02 00:47:05;;;;;;;1.57;1.47;;;12.00;57.80;;;;;;939072;151;27353;-75
2022/06/02 00:49:41;;;;;;;1.73;1.63;;;12.00;58.00;;;;;;938439;152;27465;-75
2022/06/02 00:52:13;;;;;;;1.30;1.20;;;11.90;58.40;;;;;;943051;151;27359;-75
2022/06/02 00:58:20;;;;;;;1.40;1.30;;;11.80;58.60;;;;;;946303;149;27331;-75
2022/06/02 01:00:49;;;;;;;1.43;1.33;;;11.70;58.30;;;;;;943193;149;27933;-75
2022/06/02 01:03:21;;;;;;;1.93;1.70;;;11.70;58.40;;;;;;941453;151;27302;-75
2022/06/02 01:05:56;;;;;;;1.90;1.70;;;11.70;58.70;;;;;;930835;152;27480;-75
2022/06/02 01:08:38;;;;;;;2.37;1.50;;;11.60;58.80;;;;;;930424;152;27418;-75
2022/06/02 01:11:22;;;;;;;1.23;1.23;;;11.60;59.00;;;;;;921584;152;27348;-75
2022/06/02 01:13:58;;;;;;;1.70;1.60;;;11.60;59.20;;;;;;937115;149;27379;-75
2022/06/02 01:16:31;;;;;;;1.30;1.30;;;11.50;59.10;;;;;;935516;149;27363;-75
2022/06/02 01:19:00;;;;;;;1.70;1.60;;;11.50;59.20;;;;;;930130;149;27254;-74
2022/06/02 01:21:57;;;;;;;2.10;1.70;;;11.40;59.30;;;;;;926787;155;27348;-74
2022/06/02 01:24:54;;;;;;;1.20;1.20;;;11.40;59.60;;;;;;929730;149;27380;-76
2022/06/02 01:27:39;;;;;;;1.53;1.43;;;11.30;59.60;;;;;;932625;151;27346;-75
2022/06/02 01:30:17;;;;;;;1.73;1.50;;;11.30;59.60;;;;;;933731;151;27365;-76
2022/06/02 01:33:05;;;;;;;1.40;1.40;;;11.30;59.80;;;;;;943765;152;27281;-75
2022/06/02 01:35:38;;;;;;;2.33;1.40;;;11.20;59.90;;;;;;928183;148;27336;-76
2022/06/02 01:38:10;;;;;;;1.63;1.53;;;11.20;60.80;;;;;;943332;149;27367;-74
2022/06/02 01:40:49;;;;;;;1.93;1.73;;;11.10;60.00;;;;;;933455;149;27822;-75
2022/06/02 01:43:31;;;;;;;1.40;1.30;;;11.00;60.20;;;;;;930717;152;27430;-75
2022/06/02 01:46:09;;;;;;;2.53;1.73;;;11.00;60.40;;;;;;927378;149;27438;-75
2022/06/02 01:48:47;;;;;;;1.70;1.60;;;10.90;60.50;;;;;;930084;151;27357;-75
2022/06/02 01:51:35;;;;;;;1.60;1.50;;;10.90;60.60;;;;;;946227;149;27414;-76
2022/06/02 01:54:20;;;;;;;2.23;1.73;;;10.80;60.70;;;;;;937381;152;27401;-75
2022/06/02 01:57:01;;;;;;;2.50;1.60;;;10.80;60.80;;;;;;945471;151;27437;-75
2022/06/02 01:59:55;;;;;;;2.10;1.50;;;10.80;61.00;;;;;;938215;152;27357;-75
2022/06/02 02:02:27;;;;;;;1.63;1.53;;;10.70;61.20;;;;;;939059;149;27402;-75
2022/06/02 02:04:54;;;;;;;1.93;1.83;;;10.70;61.20;;;;;;942647;152;27343;-75
2022/06/02 02:07:29;;;;;;;1.90;1.70;;;10.60;61.60;;;;;;945209;151;27474;-75
2022/06/02 02:10:10;;;;;;;2.00;1.80;;;10.60;61.70;;;;;;944952;151;27375;-75
2022/06/02 02:12:55;;;;;;;1.60;1.50;;;10.60;61.90;;;;;;935122;152;27609;-75
2022/06/02 02:15:26;;;;;;;2.60;1.70;;;10.50;61.90;;;;;;929746;154;27281;-75
2022/06/02 02:18:00;;;;;;;1.93;1.83;;;10.50;61.80;;;;;;938175;149;27316;-75
2022/06/02 02:20:32;;;;;;;1.70;1.60;;;10.50;62.00;;;;;;943456;152;27628;-76
2022/06/02 02:23:14;;;;;;;1.70;1.60;;;10.50;62.10;;;;;;942411;151;27339;-75
2022/06/02 02:25:46;;;;;;;1.90;1.80;;;10.40;62.10;;;;;;934388;151;27419;-75
2022/06/02 02:28:16;;;;;;;2.90;1.60;;;10.40;62.10;;;;;;935767;152;27349;-75
2022/06/02 02:30:45;;;;;;;1.90;1.80;;;10.30;62.30;;;;;;938896;151;27395;-75
2022/06/02 02:33:50;;;;;;;2.00;1.90;;;10.30;62.70;;;;;;954079;149;27283;-75
2022/06/02 02:36:31;;;;;;;2.10;1.83;;;10.20;63.00;;;;;;952867;149;27358;-75
2022/06/02 02:39:19;;;;;;;2.43;1.67;;;10.20;62.90;;;;;;886718;159;27481;-75
2022/06/02 02:41:51;;;;;;;2.23;1.93;;;10.10;63.00;;;;;;918457;152;27410;-75
2022/06/02 02:44:24;;;;;;;2.03;1.90;;;10.10;63.30;;;;;;928819;149;27325;-75
2022/06/02 02:46:50;;;;;;;1.93;1.83;;;10.10;63.70;;;;;;935516;149;27318;-74
2022/06/02 02:49:17;;;;;;;2.37;2.00;;;10.10;63.90;;;;;;943646;151;27782;-73
2022/06/02 02:51:46;;;;;;;1.90;1.80;;;10.00;64.00;;;;;;947229;150;27449;-73
2022/06/02 02:54:25;;;;;;;1.73;1.63;;;10.00;64.00;;;;;;929059;152;27334;-73
2022/06/02 02:56:54;;;;;;;1.97;1.87;;;10.00;64.20;;;;;;919262;152;27410;-74
2022/06/02 02:59:26;;;;;;;1.87;1.77;;;10.00;64.10;;;;;;943338;152;27428;-74
2022/06/02 03:02:21;;;;;;;2.30;2.10;;;10.00;64.40;;;;;;940101;152;27294;-74
2022/06/02 03:05:02;;;;;;;1.67;1.60;;;9.90;64.40;;;;;;942315;152;27304;-73
2022/06/02 03:07:29;;;;;;;1.90;1.80;;;9.90;64.30;;;;;;942154;152;27705;-74
2022/06/02 03:09:56;;;;;;;2.00;1.80;;;9.90;64.40;;;;;;931652;152;27871;-73
2022/06/02 03:12:25;;;;;;;1.80;1.70;;;9.90;64.60;;;;;;936488;151;27406;-73
2022/06/02 03:15:00;;;;;;;2.97;2.00;;;9.80;64.70;;;;;;944220;151;27331;-73
2022/06/02 03:17:30;;;;;;;3.43;1.70;;;9.80;64.90;;;;;;925055;152;27412;-73
2022/06/02 03:19:56;;;;;;;1.90;1.80;;;9.70;64.70;;;;;;941311;152;27332;-75
2022/06/02 03:22:41;;;;;;;1.97;1.87;;;9.70;64.80;;;;;;944598;152;27333;-75
2022/06/02 03:25:17;;;;;;;1.83;1.73;;;9.70;65.10;;;;;;934354;149;27469;-75
2022/06/02 03:27:55;;;;;;;1.80;1.70;;;9.70;65.10;;;;;;935349;152;27350;-74
2022/06/02 03:30:24;;;;;;;1.87;1.77;;;9.60;65.40;;;;;;946422;151;27422;-75
2022/06/02 03:32:59;;;;;;;1.87;1.77;;;9.60;65.40;;;;;;937178;152;27306;-74
2022/06/02 03:35:41;;;;;;;2.43;2.27;;;9.60;65.50;;;;;;944580;152;27436;-74
2022/06/02 03:38:45;;;;;;;2.17;2.00;;;9.60;65.60;;;;;;939151;151;27884;-74
2022/06/02 03:41:26;;;;;;;2.10;1.90;;;9.60;65.70;;;;;;927584;150;27333;-74
2022/06/02 03:43:58;;;;;;;1.90;1.80;;;9.60;65.60;;;;;;907475;155;27706;-74
2022/06/02 03:46:37;;;;;;;2.50;2.30;;;9.60;65.70;;;;;;941609;152;27418;-74
2022/06/02 03:49:09;;;;;;;2.07;1.97;;;9.60;66.00;;;;;;929592;150;27440;-74
2022/06/02 03:51:42;;;;;;;1.87;1.77;;;9.60;66.20;;;;;;939442;152;27367;-74
2022/06/02 03:54:26;;;;;;;4.03;2.30;;;9.60;66.50;;;;;;938278;151;27342;-74
2022/06/02 03:57:20;;;;;;;2.47;2.37;;;9.70;66.80;;;;;;941044;151;27268;-74
2022/06/02 03:59:46;;;;;;;2.23;2.03;;;9.70;66.90;;;;;;938481;152;27308;-74
2022/06/02 04:02:13;;;;;;;3.13;2.43;;;9.80;66.90;;;;;;942002;152;27411;-74
2022/06/02 04:04:58;;;;;;;2.80;2.60;;;9.80;67.10;;;;;;944407;149;27350;-74
2022/06/02 04:07:34;;;;;;;2.70;2.50;;;10.00;67.50;;;;;;945876;151;27348;-73
2022/06/02 04:10:23;;;;;;;2.37;2.17;;;10.00;67.50;;;;;;936088;152;27480;-73
2022/06/02 04:15:41;;;;;;;2.60;2.40;;;10.10;67.50;;;;;;912887;151;27930;-75
2022/06/02 04:18:08;;;;;;;2.50;2.30;;;10.20;67.50;;;;;;930670;153;27397;-74
2022/06/02 04:20:50;;;;;;;2.23;2.13;;;10.30;67.30;;;;;;932846;152;27423;-74
2022/06/02 04:23:28;;;;;;;2.00;1.90;;;10.40;67.40;;;;;;942267;152;27355;-75
2022/06/02 04:26:19;;;;;;;2.50;2.30;;;10.50;67.00;;;;;;925215;153;27380;-75
2022/06/02 04:28:46;;;;;;;2.27;2.10;;;10.50;67.00;;;;;;929403;150;27425;-74
2022/06/02 04:31:24;;;;;;;2.20;2.03;;;10.60;67.10;;;;;;926313;152;27378;-74
2022/06/02 04:34:14;;;;;;;3.50;2.30;;;10.70;67.30;;;;;;930897;152;27318;-75
2022/06/02 04:36:59;;;;;;;4.13;2.30;;;10.80;67.30;;;;;;929933;153;27325;-75
2022/06/02 04:39:31;;;;;;;2.37;2.17;;;10.90;67.20;;;;;;924266;152;27426;-74
2022/06/02 04:42:07;;;;;;;2.30;2.10;;;11.00;67.20;;;;;;928802;152;27476;-74
2022/06/02 04:44:39;;;;;;;2.33;2.17;;;11.10;67.40;;;;;;930821;150;27313;-74
2022/06/02 04:47:22;;;;;;;2.97;2.67;;;11.30;67.60;;;;;;938625;150;27273;-74
2022/06/02 04:49:47;;;;;;;4.67;2.40;;;11.40;68.00;;;;;;937179;152;27448;-74
2022/06/02 04:52:32;;;;;;;2.43;2.23;;;11.70;68.60;;;;;;926571;152;27372;-74
2022/06/02 04:55:17;;;;;;;2.10;2.00;;;12.00;69.80;;;;;;935755;152;27333;-74
2022/06/02 04:58:03;;;;;;;2.10;2.00;;;12.50;70.90;;;;;;935579;150;27364;-74
2022/06/02 05:00:34;;;;;;;2.00;1.90;;;13.20;71.70;;;;;;933807;150;27325;-74
2022/06/02 05:03:01;;;;;;;1.70;1.60;;;14.00;72.20;;;;;;933939;152;27428;-74
2022/06/02 05:05:46;;;;;;;1.90;1.80;;;14.90;72.10;;;;;;933366;152;27414;-74
2022/06/02 05:08:30;;;;;;;1.75;1.65;;;15.80;71.50;;;;;;928440;149;27316;-73
2022/06/02 05:11:25;;;;;;;1.70;1.60;;;16.80;70.50;;;;;;924126;152;27448;-74
2022/06/02 05:13:57;;;;;;;2.17;1.20;;;17.80;69.00;;;;;;926303;153;27309;-74
2022/06/02 05:16:39;;;;;;;2.62;2.30;;;19.00;66.90;;;;;;931530;152;27357;-74
2022/06/02 05:19:14;;;;;;;1.82;1.72;;;19.80;64.70;;;;;;938605;151;27357;-74
2022/06/02 05:21:43;;;;;;;1.70;1.52;;;20.80;62.70;;;;;;922908;155;27684;-74
2022/06/02 05:24:34;;;;;;;1.60;1.50;;;21.60;61.00;;;;;;931218;152;27314;-74
2022/06/02 05:27:03;;;;;;;1.27;1.27;;;22.30;59.70;;;;;;940605;151;27390;-73
2022/06/02 05:29:35;;;;;;;1.50;1.37;;;23.20;58.70;;;;;;938915;151;27449;-74
2022/06/02 05:32:04;;;;;;;1.20;1.20;;;23.90;57.50;;;;;;945671;149;27325;-73
2022/06/02 05:34:37;;;;;;;3.22;1.40;;;24.70;56.20;;;;;;937239;151;27319;-74
2022/06/02 05:37:10;;;;;;;1.20;1.10;;;25.40;55.50;;;;;;944540;151;27393;-73
2022/06/02 05:39:42;;;;;;;1.30;1.20;;;26.10;54.50;;;;;;946182;150;27317;-74
2022/06/02 05:42:14;;;;;;;1.30;1.20;;;26.90;53.30;;;;;;946602;149;27665;-74
2022/06/02 05:44:59;;;;;;;1.50;1.40;;;27.60;52.30;;;;;;902523;154;27409;-74
2022/06/02 05:47:38;;;;;;;1.45;1.35;;;28.20;51.00;;;;;;929898;149;27422;-74
2022/06/02 05:50:22;;;;;;;5.60;1.75;;;28.90;50.30;;;;;;935393;151;27874;-74
2022/06/02 05:53:04;;;;;;;1.75;1.60;;;29.50;49.50;;;;;;941849;151;27470;-74
2022/06/02 05:55:37;;;;;;;2.17;1.37;;;30.10;48.30;;;;;;935192;149;27539;-74
2022/06/02 05:58:21;;;;;;;2.52;1.60;;;30.60;47.10;;;;;;923150;151;27423;-74
2022/06/02 06:00:50;;;;;;;1.62;1.40;;;31.10;46.20;;;;;;935274;151;27317;-74
2022/06/02 06:03:48;;;;;;;2.00;1.25;;;31.60;45.60;;;;;;937637;151;27327;-74
2022/06/02 06:06:18;;;;;;;2.50;1.60;;;32.00;44.80;;;;;;931537;149;27351;-74
2022/06/02 06:08:44;;;;;;;2.02;1.92;;;32.50;44.30;;;;;;943035;151;27383;-74
2022/06/02 06:11:26;;;;;;;1.42;1.32;;;32.80;43.70;;;;;;941409;151;27785;-74
2022/06/02 06:14:16;;;;;;;1.45;1.35;;;33.20;42.80;;;;;;943137;151;27415;-74
2022/06/02 06:17:10;;;;;;;1.32;1.22;;;33.70;42.20;;;;;;944075;151;27484;-74
2022/06/02 06:19:40;;;;;;;1.57;1.40;;;34.00;41.40;;;;;;929451;153;26380;-74
2022/06/02 06:22:34;;;;;;;1.52;1.42;;;34.40;40.80;;;;;;938391;149;26257;-74
2022/06/02 06:25:00;;;;;;;1.62;1.52;;;34.60;40.10;;;;;;935801;151;27310;-74
2022/06/02 06:27:45;;;;;;;1.65;1.50;;;35.00;39.90;;;;;;936205;151;27494;-74
2022/06/02 06:30:21;;;;;;;1.42;1.32;;;35.20;39.00;;;;;;948498;150;27356;-74
2022/06/02 06:32:56;;;;;;;1.57;1.20;;;35.40;38.30;;;;;;921017;152;26360;-74
2022/06/02 06:35:50;;;;;;;1.62;1.50;;;35.50;37.70;;;;;;938139;150;27331;-74
2022/06/02 06:38:20;;;;;;;1.90;1.37;;;35.70;37.40;;;;;;925843;153;26305;-74
2022/06/02 06:40:55;;;;;;;1.67;1.57;;;35.80;37.40;;;;;;935658;153;26316;-74
2022/06/02 06:43:31;;;;;;;2.15;1.47;;;36.00;36.80;;;;;;931683;153;26317;-74
2022/06/02 06:46:03;;;;;;;1.60;1.50;;;36.20;36.30;;;;;;939202;150;27963;-75
2022/06/02 06:48:35;;;;;;;1.60;1.50;;;36.40;35.70;;;;;;929436;153;26554;-74
2022/06/02 06:51:23;;;;;;;1.50;1.42;;;36.60;35.30;;;;;;937610;152;27427;-74
2022/06/02 06:53:52;;;;;;;2.17;1.40;;;36.70;35.10;;;;;;938043;150;26242;-74
2022/06/02 06:56:24;;;;;;;1.45;1.35;;;36.90;34.50;;;;;;938803;152;26238;-75
2022/06/02 06:58:54;;;;;;;1.50;1.40;;;37.10;33.80;;;;;;934434;152;26330;-75
2022/06/02 07:01:39;;;;;;;1.50;1.40;;;37.20;33.40;;;;;;934959;150;26320;-75
2022/06/02 07:04:20;;;;;;;1.37;1.37;;;37.20;33.30;;;;;;940699;150;26246;-75
2022/06/02 07:06:52;;;;;;;1.02;0.93;;;37.40;33.30;;;;;;937166;150;26338;-74
2022/06/02 07:09:21;;;;;;;1.50;1.40;;;37.50;33.30;;;;;;936723;152;26231;-75
2022/06/02 07:14:47;;;;;;;1.85;1.50;;;37.90;32.30;;;;;;938406;150;27396;-75
2022/06/02 07:17:17;;;;;;;2.45;1.55;;;38.10;32.20;;;;;;936310;150;26258;-74
2022/06/02 07:19:49;;;;;;;2.02;1.92;;;38.30;31.80;;;;;;923515;150;26247;-74
2022/06/02 07:22:37;;;;;;;2.15;1.90;;;38.40;31.50;;;;;;946685;150;26226;-74
2022/06/02 07:25:19;;;;;;;2.50;2.30;;;38.60;31.40;;;;;;930581;151;26258;-75
2022/06/02 07:27:51;;;;;;;2.10;2.00;;;38.80;31.10;;;;;;938993;149;26300;-74
2022/06/02 07:30:42;;;;;;;2.70;2.42;;;38.90;30.60;;;;;;942143;151;27297;-75
2022/06/02 07:33:14;;;;;;;2.75;2.55;;;39.00;30.20;;;;;;937032;152;27324;-74
2022/06/02 07:36:00;;;;;;;2.02;1.92;;;39.10;30.00;;;;;;941170;152;27860;-74
2022/06/02 07:38:45;;;;;;;2.58;1.80;;;39.30;30.00;;;;;;935784;152;26256;-75
2022/06/02 07:41:29;;;;;;;2.85;2.65;;;39.40;30.00;;;;;;934146;151;26280;-74
2022/06/02 07:44:05;;;;;;;2.47;2.33;;;39.70;29.60;;;;;;941073;149;26267;-74
2022/06/02 07:46:52;;;;;;;2.20;2.10;;;40.00;29.20;;;;;;937898;152;27431;-74
2022/06/02 07:49:23;;;;;;;3.35;2.60;;;40.10;29.10;;;;;;931315;151;26277;-75
2022/06/02 07:51:48;;;;;;;2.30;2.10;;;40.20;28.60;;;;;;929582;151;26265;-74
2022/06/02 07:54:18;;;;;;;2.30;2.20;;;40.40;28.50;;;;;;941051;152;26229;-74
2022/06/02 07:56:50;;;;;;;2.65;2.45;;;40.60;28.10;;;;;;943178;151;26290;-74
2022/06/02 07:59:23;;;;;;;2.50;2.40;;;40.70;27.80;;;;;;944087;152;26256;-76
2022/06/02 08:02:06;;;;;;;2.77;2.58;;;40.70;27.50;;;;;;932215;152;26187;-74
2022/06/02 08:04:58;;;;;;;2.52;2.33;;;40.70;27.20;;;;;;944653;151;26169;-74
2022/06/02 08:07:30;;;;;;;2.72;2.47;;;40.70;27.20;;;;;;935691;149;26380;-74
2022/06/02 08:10:31;;;;;;;2.85;2.65;;;40.60;26.80;;;;;;929044;152;26254;-74
2022/06/02 08:13:18;;;;;;;2.50;2.30;;;40.50;26.80;;;;;;934655;151;26310;-75
2022/06/02 08:16:09;;;;;;;3.22;2.92;;;40.50;26.70;;;;;;932291;154;26341;-74
2022/06/02 08:18:47;;;;;;;2.02;1.92;;;40.50;26.60;;;;;;938410;149;26243;-75
2022/06/02 08:21:17;;;;;;;2.33;2.15;;;40.50;26.50;;;;;;943728;151;26370;-74
2022/06/02 08:24:07;;;;;;;1.92;1.70;;;40.60;26.60;;;;;;945379;151;26224;-75
2022/06/02 08:26:49;;;;;;;2.10;2.00;;;40.70;26.40;;;;;;937329;148;26183;-74
2022/06/02 08:29:53;;;;;;;2.02;1.92;;;40.80;26.40;;;;;;923126;154;26260;-75
2022/06/02 08:32:28;;;;;;;2.47;2.27;;;40.90;26.20;;;;;;932809;150;26229;-74
2022/06/02 08:35:04;;;;;;;3.05;2.70;;;40.90;25.80;;;;;;940288;152;26350;-74
2022/06/02 08:37:32;;;;;;;2.50;2.30;;;41.00;25.60;;;;;;942681;149;26260;-74
2022/06/02 08:40:16;;;;;;;2.42;2.22;;;41.00;25.40;;;;;;928268;152;27464;-74
2022/06/02 08:43:13;;;;;;;2.30;2.20;;;41.00;25.10;;;;;;937927;151;26207;-74
2022/06/02 08:45:59;;;;;;;2.33;2.12;;;40.90;24.90;;;;;;937564;152;26362;-74
2022/06/02 08:48:44;;;;;;;2.60;2.40;;;40.60;24.90;;;;;;926291;150;26297;-75
2022/06/02 08:51:11;;;;;;;2.67;2.47;;;40.30;25.00;;;;;;928403;153;26249;-74
2022/06/02 08:54:02;;;;;;;2.30;2.20;;;40.10;25.20;;;;;;920080;152;27428;-74
2022/06/02 08:56:48;;;;;;;2.12;2.02;;;40.00;25.30;;;;;;926955;152;26233;-75
2022/06/02 08:59:44;;;;;;;3.30;2.60;;;39.90;25.40;;;;;;933310;152;26303;-74
2022/06/02 09:02:22;;;;;;;1.87;1.77;;;39.90;25.10;;;;;;934718;150;26263;-74
2022/06/02 09:05:25;;;;;;;2.10;1.90;;;39.90;25.30;;;;;;930754;152;26366;-74
2022/06/02 09:08:17;;;;;;;1.75;1.65;;;39.80;24.90;;;;;;932292;151;26729;-74
2022/06/02 09:10:45;;;;;;;1.67;1.57;;;39.70;25.00;;;;;;924366;152;27423;-74
2022/06/02 09:13:45;;;;;;;1.92;1.72;;;39.50;25.00;;;;;;940576;152;27326;-74
2022/06/02 09:16:21;;;;;;;2.55;1.98;;;39.40;25.00;;;;;;932560;152;26213;-74
2022/06/02 09:19:25;;;;;;;1.70;1.60;;;39.40;25.00;;;;;;924335;152;26353;-74
2022/06/02 09:22:10;;;;;;;2.08;1.60;;;39.40;24.70;;;;;;928192;152;26259;-74
2022/06/02 09:24:43;;;;;;;1.65;1.55;;;39.40;24.50;;;;;;937637;152;26299;-74
2022/06/02 09:27:31;;;;;;;2.33;1.52;;;39.20;24.50;;;;;;929003;153;27444;-74
2022/06/02 09:30:00;;;;;;;2.75;1.40;;;39.10;24.30;;;;;;935022;152;26345;-74
2022/06/02 09:32:56;;;;;;;2.17;1.30;;;38.90;24.40;;;;;;940429;151;26244;-74
2022/06/02 09:35:25;;;;;;;1.45;1.32;;;38.70;24.40;;;;;;947159;150;26257;-74
2022/06/02 09:38:25;;;;;;;1.77;1.67;;;38.60;24.50;;;;;;936829;152;26261;-74
2022/06/02 09:41:01;;;;;;;1.37;1.27;;;38.40;24.30;;;;;;896484;158;26324;-75
2022/06/02 09:43:27;;;;;;;1.60;1.50;;;38.20;24.30;;;;;;919785;152;26257;-75
2022/06/02 09:46:14;;;;;;;1.20;1.20;;;38.00;24.30;;;;;;925521;154;27427;-74
2022/06/02 09:48:48;;;;;;;1.65;1.22;;;37.70;24.30;;;;;;927404;154;26730;-74
2022/06/02 09:51:42;;;;;;;0.95;0.95;;;37.40;24.10;;;;;;913350;153;26353;-74
2022/06/02 09:54:14;;;;;;;1.02;0.75;;;37.00;24.10;;;;;;944637;149;27400;-73
2022/06/02 09:56:53;;;;;;;0.90;0.90;;;36.60;24.60;;;;;;912051;157;27453;-74
2022/06/02 09:59:40;;;;;;;0.95;0.95;;;36.30;24.80;;;;;;916798;155;27341;-74
2022/06/02 10:02:25;;;;;;;1.10;1.00;;;36.00;24.60;;;;;;907466;156;27370;-73
2022/06/02 10:05:10;;;;;;;0.90;0.90;;;35.70;24.40;;;;;;928960;153;27331;-74
2022/06/02 10:07:54;;;;;;;1.12;1.07;;;35.30;24.30;;;;;;918893;153;27361;-74
2022/06/02 10:10:30;;;;;;;1.07;1.00;;;34.80;24.60;;;;;;929665;149;27379;-73
2022/06/02 10:13:18;;;;;;;1.62;0.98;;;34.30;24.70;;;;;;919558;152;27338;-74
2022/06/02 10:15:54;;;;;;;0.75;0.68;;;33.80;24.80;;;;;;916119;156;27387;-74
2022/06/02 10:18:26;;;;;;;1.15;1.10;;;33.30;25.00;;;;;;931494;153;27471;-74
2022/06/02 10:21:26;;;;;;;1.27;1.20;;;32.90;25.80;;;;;;912907;156;27422;-74
2022/06/02 10:24:14;;;;;;;0.93;0.93;;;32.50;25.40;;;;;;921989;152;27373;-74
2022/06/02 10:26:55;;;;;;;1.22;1.12;;;32.10;25.50;;;;;;914042;153;27538;-74
2022/06/02 10:29:43;;;;;;;2.15;0.88;;;31.70;25.70;;;;;;925808;153;27436;-75
2022/06/02 10:32:39;;;;;;;1.02;1.00;;;31.40;26.00;;;;;;921284;154;27374;-74
2022/06/02 10:35:15;;;;;;;1.05;0.95;;;31.20;26.20;;;;;;917971;153;27471;-73
2022/06/02 10:38:14;;;;;;;0.62;0.62;;;31.00;26.20;;;;;;916738;155;27918;-74
2022/06/02 10:40:41;;;;;;;1.07;0.75;;;30.80;26.30;;;;;;927996;152;27352;-74
2022/06/02 10:43:11;;;;;;;0.80;0.80;;;30.60;26.40;;;;;;917461;154;27339;-75
2022/06/02 10:45:59;;;;;;;1.05;0.80;;;30.50;26.60;;;;;;933995;152;27349;-75
2022/06/02 10:48:46;;;;;;;0.62;0.62;;;30.40;26.50;;;;;;917948;155;28848;-74
2022/06/02 10:51:31;;;;;;;0.70;0.70;;;30.30;26.70;;;;;;913919;155;27423;-75
2022/06/02 10:54:22;;;;;;;1.00;1.00;;;30.30;26.70;;;;;;892272;153;27331;-74
2022/06/02 10:57:04;;;;;;;0.90;0.90;;;30.20;26.80;;;;;;916302;155;27318;-74
2022/06/02 10:59:45;;;;;;;0.95;0.95;;;30.10;26.80;;;;;;916285;155;27310;-74
2022/06/02 11:02:40;;;;;;;0.53;0.53;;;30.00;26.70;;;;;;938558;152;27696;-74
2022/06/02 11:05:21;;;;;;;0.60;0.60;;;29.80;26.90;;;;;;935935;152;27399;-74
2022/06/02 11:07:51;;;;;;;0.90;0.90;;;29.60;27.10;;;;;;932181;152;27436;-74
2022/06/02 11:10:21;;;;;;;0.80;0.80;;;29.50;27.20;;;;;;927868;152;27351;-75
2022/06/02 11:13:11;;;;;;;1.47;0.80;;;29.30;27.20;;;;;;909036;155;27461;-74
2022/06/02 11:15:41;;;;;;;1.85;0.95;;;29.20;27.50;;;;;;928656;152;27350;-74
2022/06/02 11:18:34;;;;;;;0.78;0.78;;;29.00;27.50;;;;;;931668;151;27471;-74
2022/06/02 11:21:31;;;;;;;0.57;0.57;;;28.90;27.50;;;;;;918669;155;27464;-74
2022/06/02 11:23:58;;;;;;;1.07;0.57;;;28.70;27.60;;;;;;934304;153;27380;-74
2022/06/02 11:26:27;;;;;;;0.82;0.70;;;28.50;27.70;;;;;;925595;152;27387;-74
2022/06/02 11:29:18;;;;;;;0.80;0.80;;;28.30;27.80;;;;;;923858;153;27398;-74
2022/06/02 11:32:00;;;;;;;0.95;0.65;;;28.10;28.00;;;;;;931034;151;27564;-74
2022/06/02 11:34:44;;;;;;;1.35;1.25;;;28.00;28.20;;;;;;939129;151;27324;-74
2022/06/02 11:37:35;;;;;;;0.70;0.65;;;27.90;28.20;;;;;;925362;152;27357;-75
2022/06/02 11:40:33;;;;;;;0.62;0.62;;;27.80;28.40;;;;;;922690;154;27437;-74
2022/06/02 11:43:02;;;;;;;1.60;0.72;;;27.80;28.70;;;;;;932017;153;27332;-75
2022/06/02 11:45:54;;;;;;;0.65;0.65;;;27.80;28.80;;;;;;948811;151;27274;-74
2022/06/02 11:48:38;;;;;;;0.90;0.90;;;27.80;28.80;;;;;;931829;154;27435;-74
2022/06/02 11:51:06;;;;;;;0.53;0.53;;;27.80;28.70;;;;;;935523;151;27437;-74
2022/06/02 11:53:52;;;;;;;0.62;0.62;;;27.80;28.70;;;;;;940465;151;27438;-74
2022/06/02 11:56:40;;;;;;;0.60;0.60;;;27.80;28.70;;;;;;932776;151;27366;-74
2022/06/02 11:59:12;;;;;;;0.72;0.72;;;27.80;28.90;;;;;;934031;153;27337;-74
2022/06/02 12:01:47;;;;;;;0.50;0.50;;;27.80;28.90;;;;;;938241;150;27355;-74
2022/06/02 12:04:23;;;;;;;0.65;0.65;;;27.80;29.10;;;;;;930460;152;27333;-73
2022/06/02 12:07:20;;;;;;;0.70;0.68;;;27.80;29.00;;;;;;926547;155;27350;-74
2022/06/02 12:10:08;;;;;;;0.60;0.60;;;27.80;28.90;;;;;;931453;152;27499;-74
2022/06/02 12:12:41;;;;;;;0.60;0.60;;;27.80;29.00;;;;;;930962;153;27295;-74
2022/06/02 12:15:22;;;;;;;0.80;0.70;;;27.80;29.10;;;;;;927819;154;27357;-74
2022/06/02 12:18:04;;;;;;;0.45;0.45;;;27.80;29.50;;;;;;884899;161;27538;-74
2022/06/02 12:20:55;;;;;;;0.65;0.65;;;27.80;29.70;;;;;;919188;154;27334;-74
2022/06/02 12:23:30;;;;;;;0.55;0.55;;;27.80;29.50;;;;;;934672;152;27391;-74
2022/06/02 12:26:08;;;;;;;0.50;0.50;;;27.80;29.30;;;;;;939223;151;27506;-74
2022/06/02 12:29:03;;;;;;;0.55;0.55;;;27.80;29.40;;;;;;941689;152;27337;-74
2022/06/02 12:31:40;;;;;;;0.60;0.60;;;27.70;29.30;;;;;;942312;151;27335;-74
2022/06/02 12:34:44;;;;;;;0.95;0.70;;;27.70;29.20;;;;;;942210;151;27308;-74
2022/06/02 12:37:22;;;;;;;0.50;0.50;;;27.70;29.20;;;;;;930369;152;27362;-74
2022/06/02 12:40:06;;;;;;;0.68;0.68;;;27.60;29.20;;;;;;938818;151;27332;-74
2022/06/02 12:42:51;;;;;;;0.50;0.50;;;27.50;29.20;;;;;;943684;150;27293;-74
2022/06/02 12:45:26;;;;;;;1.02;0.55;;;27.40;29.20;;;;;;933671;151;27434;-74
2022/06/02 12:48:18;;;;;;;0.65;0.60;;;27.30;29.20;;;;;;935777;152;27253;-74
2022/06/02 12:50:56;;;;;;;0.40;0.40;;;27.30;29.40;;;;;;937818;151;27431;-74
2022/06/02 12:53:37;;;;;;;0.60;0.45;;;27.30;29.40;;;;;;943334;151;27706;-74
2022/06/02 12:56:04;;;;;;;0.88;0.60;;;27.20;29.50;;;;;;945915;151;27707;-74
2022/06/02 12:58:36;;;;;;;0.90;0.90;;;27.10;29.40;;;;;;946566;151;27341;-75
2022/06/02 13:01:27;;;;;;;0.70;0.70;;;27.10;29.80;;;;;;947297;150;27401;-74
2022/06/02 13:04:09;;;;;;;0.53;0.53;;;27.00;29.40;;;;;;940671;151;27459;-74
2022/06/02 13:06:53;;;;;;;0.50;0.50;;;27.00;29.50;;;;;;930769;153;27355;-74
2022/06/02 13:09:48;;;;;;;0.55;0.55;;;26.90;29.50;;;;;;938928;153;27461;-74
2022/06/02 13:12:33;;;;;;;0.70;0.70;;;26.80;29.50;;;;;;943470;151;27435;-74
2022/06/02 13:15:21;;;;;;;0.40;0.40;;;26.80;29.80;;;;;;934062;154;27339;-74
2022/06/02 13:18:21;;;;;;;0.68;0.68;;;26.60;29.70;;;;;;940393;151;27386;-74
2022/06/02 13:21:06;;;;;;;0.65;0.62;;;26.60;29.70;;;;;;931134;153;27413;-74
2022/06/02 13:24:07;;;;;;;5.37;0.80;;;26.50;29.70;;;;;;931727;151;27434;-74
2022/06/02 13:26:36;;;;;;;0.50;0.50;;;26.50;29.70;;;;;;945408;151;27299;-75
2022/06/02 13:29:36;;;;;;;0.78;0.55;;;26.40;29.80;;;;;;946855;151;27322;-74
2022/06/02 13:32:15;;;;;;;0.37;0.37;;;26.40;29.70;;;;;;936356;149;27486;-74
2022/06/02 13:34:53;;;;;;;0.60;0.50;;;26.40;29.60;;;;;;932685;152;27364;-75
2022/06/02 13:37:47;;;;;;;0.57;0.57;;;26.40;29.50;;;;;;906822;155;27300;-74
2022/06/02 13:40:28;;;;;;;0.20;0.20;;;26.40;29.60;;;;;;935529;152;27398;-74
2022/06/02 13:43:00;;;;;;;0.57;0.57;;;26.40;29.40;;;;;;936951;152;27274;-74
2022/06/02 13:45:35;;;;;;;1.60;0.30;;;26.30;29.40;;;;;;925063;152;27424;-74
2022/06/02 13:48:29;;;;;;;0.80;0.80;;;26.30;29.40;;;;;;929971;154;27312;-74
2022/06/02 13:51:23;;;;;;;2.10;0.60;;;26.20;29.40;;;;;;927245;153;27384;-74
2022/06/02 13:59:21;;;;;;;0.50;0.50;;;26.00;29.50;;;;;;939125;153;27383;-73
2022/06/02 14:02:11;;;;;;;0.55;0.37;;;26.00;29.80;;;;;;934038;152;27341;-74
2022/06/02 14:04:41;;;;;;;0.50;0.50;;;26.00;29.90;;;;;;934264;152;27325;-75
2022/06/02 14:07:24;;;;;;;0.62;0.62;;;26.10;29.90;;;;;;933346;152;27442;-74